Time;durP1;ratioP1;P1;durP2;ratioP2;P2;SDS_P1;SDS_P2;PMS_P1;PMS_P2;Temp;Humidity;BMP_temperature;BMP_pressure;BME280_temperature;BME280_humidity;BME280_pressure;Samples;Min_cycle;Max_cycle;Signal;HPM_P1;HPM_P2
2023/05/12 00:02:09;;;;;;;5.55;2.63;;;;;;;;;;4933564;28;20691;-71
2023/05/12 00:04:35;;;;;;;3.22;2.20;;;;;;;;;;4941437;28;20070;-71
2023/05/12 00:07:00;;;;;;;3.22;2.33;;;;;;;;;;4937677;28;20115;-71
2023/05/12 00:09:26;;;;;;;3.25;1.92;;;;;;;;;;4935257;28;20051;-71
2023/05/12 00:11:51;;;;;;;3.17;1.80;;;;;;;;;;4925998;28;20041;-71
2023/05/12 00:14:18;;;;;;;3.08;2.33;;;;;;;;;;4924960;28;20047;-71
2023/05/12 00:16:46;;;;;;;2.80;2.13;;;;;;;;;;4938136;28;20811;-70
2023/05/12 00:19:11;;;;;;;5.03;2.20;;;;;;;;;;4937786;28;20101;-71
2023/05/12 00:21:37;;;;;;;4.45;1.80;;;;;;;;;;4932610;28;20051;-71
2023/05/12 00:24:02;;;;;;;2.80;1.90;;;;;;;;;;4937435;28;20082;-70
2023/05/12 00:26:28;;;;;;;3.13;1.83;;;;;;;;;;4929876;28;20392;-71
2023/05/12 00:28:53;;;;;;;2.85;1.83;;;;;;;;;;4928994;28;20028;-71
2023/05/12 00:31:18;;;;;;;3.25;1.52;;;;;;;;;;4930697;28;20094;-71
2023/05/12 00:33:44;;;;;;;3.25;1.50;;;;;;;;;;4934236;28;20035;-71
2023/05/12 00:36:09;;;;;;;3.25;1.95;;;;;;;;;;4937344;28;20536;-71
2023/05/12 00:38:36;;;;;;;2.72;1.70;;;;;;;;;;4940593;28;20042;-71
2023/05/12 00:41:01;;;;;;;3.17;1.95;;;;;;;;;;4927613;28;20051;-71
2023/05/12 00:43:27;;;;;;;4.03;1.85;;;;;;;;;;4921103;28;20131;-71
2023/05/12 00:45:52;;;;;;;2.90;1.88;;;;;;;;;;4935578;28;20133;-70
2023/05/12 00:48:18;;;;;;;2.40;1.77;;;;;;;;;;4934013;28;20113;-71
2023/05/12 00:50:43;;;;;;;3.17;1.80;;;;;;;;;;4938607;28;20582;-71
2023/05/12 00:53:09;;;;;;;3.42;1.77;;;;;;;;;;4936944;28;20152;-71
2023/05/12 00:55:36;;;;;;;2.60;1.77;;;;;;;;;;4910169;28;20129;-71
2023/05/12 00:58:02;;;;;;;2.30;1.60;;;;;;;;;;4929078;28;20049;-71
2023/05/12 01:00:27;;;;;;;3.55;1.80;;;;;;;;;;4936395;28;20039;-71
2023/05/12 01:02:57;;;;;;;3.00;2.40;;;;;;;;;;4940187;28;20069;-71
2023/05/12 01:05:28;;;;;;;2.97;2.13;;;;;;;;;;4933971;28;20051;-70
2023/05/12 01:07:55;;;;;;;4.95;1.88;;;;;;;;;;4928440;28;20447;-71
2023/05/12 01:10:20;;;;;;;2.50;2.00;;;;;;;;;;4928952;28;20039;-71
2023/05/12 01:12:46;;;;;;;3.33;1.90;;;;;;;;;;4939935;28;20074;-71
2023/05/12 01:15:12;;;;;;;3.42;1.90;;;;;;;;;;4936114;28;20803;-70
2023/05/12 01:17:41;;;;;;;2.33;1.80;;;;;;;;;;4933729;28;20038;-71
2023/05/12 01:20:08;;;;;;;5.80;1.92;;;;;;;;;;4933976;28;20122;-71
2023/05/12 01:22:35;;;;;;;3.13;1.63;;;;;;;;;;4920870;28;20042;-71
2023/05/12 01:25:04;;;;;;;1.90;1.48;;;;;;;;;;4936693;28;20032;-71
2023/05/12 01:27:30;;;;;;;2.65;1.67;;;;;;;;;;4931672;28;20126;-71
2023/05/12 01:30:04;;;;;;;3.03;2.00;;;;;;;;;;4937257;28;20079;-71
2023/05/12 01:32:30;;;;;;;3.28;2.30;;;;;;;;;;4941221;28;20038;-71
2023/05/12 01:34:55;;;;;;;2.83;1.90;;;;;;;;;;4924007;28;20460;-71
2023/05/12 01:37:21;;;;;;;2.88;2.03;;;;;;;;;;4931126;28;20045;-71
2023/05/12 01:39:46;;;;;;;4.63;1.80;;;;;;;;;;4925298;28;20067;-71
2023/05/12 01:42:12;;;;;;;3.25;1.90;;;;;;;;;;4938159;28;20492;-71
2023/05/12 01:44:37;;;;;;;2.63;1.95;;;;;;;;;;4939203;28;20034;-71
2023/05/12 01:47:04;;;;;;;2.22;1.80;;;;;;;;;;4931600;28;20043;-71
2023/05/12 01:49:29;;;;;;;2.83;2.17;;;;;;;;;;4911162;28;20039;-71
2023/05/12 01:51:55;;;;;;;6.38;2.40;;;;;;;;;;4932950;28;20091;-71
2023/05/12 01:54:20;;;;;;;5.20;2.00;;;;;;;;;;4938358;28;20062;-71
2023/05/12 01:56:45;;;;;;;2.92;2.00;;;;;;;;;;4939406;28;20049;-71
2023/05/12 01:59:11;;;;;;;3.67;2.25;;;;;;;;;;4939796;28;20563;-71
2023/05/12 02:01:36;;;;;;;3.20;2.38;;;;;;;;;;4934375;28;20688;-71
2023/05/12 02:04:03;;;;;;;2.83;1.95;;;;;;;;;;4918649;28;20043;-71
2023/05/12 02:06:28;;;;;;;2.95;2.15;;;;;;;;;;4942835;28;20034;-71
2023/05/12 02:08:54;;;;;;;5.75;2.40;;;;;;;;;;4941209;28;20053;-71
2023/05/12 02:11:20;;;;;;;2.95;2.20;;;;;;;;;;4931210;28;20122;-71
2023/05/12 02:13:46;;;;;;;5.00;2.35;;;;;;;;;;4939718;28;20038;-71
2023/05/12 02:16:12;;;;;;;3.72;2.47;;;;;;;;;;4933117;28;20141;-71
2023/05/12 02:18:37;;;;;;;2.67;2.35;;;;;;;;;;4925546;28;20117;-71
2023/05/12 02:21:03;;;;;;;3.55;2.53;;;;;;;;;;4938395;28;20508;-71
2023/05/12 02:23:28;;;;;;;3.05;2.33;;;;;;;;;;4937564;28;20043;-71
2023/05/12 02:25:54;;;;;;;3.20;2.20;;;;;;;;;;4940856;28;20045;-71
2023/05/12 02:28:19;;;;;;;3.13;2.17;;;;;;;;;;4941165;28;20098;-71
2023/05/12 02:30:47;;;;;;;4.15;2.63;;;;;;;;;;4928491;28;20137;-71
2023/05/12 02:33:13;;;;;;;4.13;2.42;;;;;;;;;;4925157;28;20050;-71
2023/05/12 02:35:39;;;;;;;3.78;2.10;;;;;;;;;;4937787;28;20043;-71
2023/05/12 02:38:04;;;;;;;3.20;2.10;;;;;;;;;;4939483;28;20039;-71
2023/05/12 02:40:29;;;;;;;3.40;2.33;;;;;;;;;;4937278;28;20066;-71
2023/05/12 02:42:55;;;;;;;2.88;2.08;;;;;;;;;;4939994;28;20050;-71
2023/05/12 02:45:20;;;;;;;6.00;3.20;;;;;;;;;;4920867;28;20098;-71
2023/05/12 02:47:46;;;;;;;3.15;2.03;;;;;;;;;;4935057;28;20083;-71
2023/05/12 02:50:11;;;;;;;2.83;1.92;;;;;;;;;;4931005;28;20055;-71
2023/05/12 02:52:37;;;;;;;2.90;2.20;;;;;;;;;;4940299;28;20550;-71
2023/05/12 02:55:02;;;;;;;3.97;2.42;;;;;;;;;;4933936;28;20077;-71
2023/05/12 02:57:32;;;;;;;4.35;2.22;;;;;;;;;;4940224;28;20039;-71
2023/05/12 03:00:03;;;;;;;3.72;2.67;;;;;;;;;;4920286;28;20047;-71
2023/05/12 03:02:29;;;;;;;4.82;2.55;;;;;;;;;;4940138;28;20043;-71
2023/05/12 03:04:54;;;;;;;3.45;2.35;;;;;;;;;;4939800;28;20097;-71
2023/05/12 03:07:19;;;;;;;2.75;2.13;;;;;;;;;;4932674;28;20086;-71
2023/05/12 03:09:45;;;;;;;4.45;2.60;;;;;;;;;;4939872;28;20511;-71
2023/05/12 03:12:10;;;;;;;3.88;2.70;;;;;;;;;;4930288;28;20035;-71
2023/05/12 03:14:35;;;;;;;4.55;3.38;;;;;;;;;;4932120;28;20453;-71
2023/05/12 03:17:01;;;;;;;4.63;2.97;;;;;;;;;;4933686;28;20051;-71
2023/05/12 03:19:26;;;;;;;4.82;3.08;;;;;;;;;;4936447;28;20046;-71
2023/05/12 03:21:53;;;;;;;3.90;2.65;;;;;;;;;;4939476;28;20534;-71
2023/05/12 03:24:18;;;;;;;3.85;2.85;;;;;;;;;;4940069;28;20067;-71
2023/05/12 03:26:44;;;;;;;4.43;3.40;;;;;;;;;;4932800;28;20066;-71
2023/05/12 03:29:09;;;;;;;6.13;3.60;;;;;;;;;;4908847;28;20047;-71
2023/05/12 03:31:35;;;;;;;6.50;4.30;;;;;;;;;;4940441;28;20042;-69
2023/05/12 03:34:00;;;;;;;4.38;3.35;;;;;;;;;;4933207;28;20636;-72
2023/05/12 03:36:26;;;;;;;4.30;3.05;;;;;;;;;;4941278;28;20084;-71
2023/05/12 03:38:51;;;;;;;4.05;2.80;;;;;;;;;;4932443;28;20051;-70
2023/05/12 03:41:16;;;;;;;3.97;2.88;;;;;;;;;;4920064;28;20125;-71
2023/05/12 03:43:42;;;;;;;4.10;2.83;;;;;;;;;;4941130;28;20042;-70
2023/05/12 03:46:07;;;;;;;3.33;2.28;;;;;;;;;;4937575;28;20066;-71
2023/05/12 03:48:32;;;;;;;5.28;3.05;;;;;;;;;;4939910;28;20039;-71
2023/05/12 03:50:58;;;;;;;4.15;3.20;;;;;;;;;;4933220;28;20058;-70
2023/05/12 03:53:23;;;;;;;6.68;4.18;;;;;;;;;;4936257;28;20035;-71
2023/05/12 03:55:49;;;;;;;4.47;3.22;;;;;;;;;;4918626;28;20436;-72
2023/05/12 03:58:14;;;;;;;3.85;2.63;;;;;;;;;;4942598;28;20049;-72
2023/05/12 04:00:39;;;;;;;4.32;2.90;;;;;;;;;;4930623;28;20040;-73
2023/05/12 04:03:05;;;;;;;5.85;3.80;;;;;;;;;;4935390;28;20039;-72
2023/05/12 04:05:30;;;;;;;8.75;4.40;;;;;;;;;;4934954;28;20038;-73
2023/05/12 04:07:55;;;;;;;4.95;3.45;;;;;;;;;;4936814;28;20031;-70
2023/05/12 04:10:21;;;;;;;5.03;3.67;;;;;;;;;;4914445;28;20126;-70
2023/05/12 04:12:47;;;;;;;4.05;3.17;;;;;;;;;;4931887;28;20739;-71
2023/05/12 04:15:13;;;;;;;4.38;3.60;;;;;;;;;;4935002;28;20110;-70
2023/05/12 04:17:39;;;;;;;5.82;4.00;;;;;;;;;;4936353;28;20724;-70
2023/05/12 04:20:06;;;;;;;6.50;4.22;;;;;;;;;;4935224;28;20130;-70
2023/05/12 04:22:31;;;;;;;4.95;3.80;;;;;;;;;;4925671;28;20041;-70
2023/05/12 04:24:56;;;;;;;5.40;3.47;;;;;;;;;;4899066;28;20133;-70
2023/05/12 04:27:22;;;;;;;4.13;2.95;;;;;;;;;;4935825;28;20530;-70
2023/05/12 04:29:47;;;;;;;4.82;3.55;;;;;;;;;;4935357;28;20058;-70
2023/05/12 04:32:13;;;;;;;5.32;3.00;;;;;;;;;;4930628;28;20047;-73
2023/05/12 04:34:38;;;;;;;4.13;3.10;;;;;;;;;;4936518;28;20946;-73
2023/05/12 04:37:04;;;;;;;6.38;2.97;;;;;;;;;;4933428;28;20548;-72
2023/05/12 04:39:29;;;;;;;3.78;2.63;;;;;;;;;;4922229;28;21148;-72
2023/05/12 04:41:54;;;;;;;4.20;3.25;;;;;;;;;;4925151;28;20039;-69
2023/05/12 04:44:21;;;;;;;5.10;2.40;;;;;;;;;;4923419;28;20699;-69
2023/05/12 04:46:46;;;;;;;4.82;2.80;;;;;;;;;;4924884;28;20147;-69
2023/05/12 04:49:13;;;;;;;4.57;2.95;;;;;;;;;;4927282;28;20125;-69
2023/05/12 04:51:41;;;;;;;4.57;3.13;;;;;;;;;;4927333;28;20829;-69
2023/05/12 04:54:09;;;;;;;3.63;2.83;;;;;;;;;;4903689;28;20056;-69
2023/05/12 04:56:34;;;;;;;5.93;2.97;;;;;;;;;;4907268;28;20417;-69
2023/05/12 04:58:59;;;;;;;5.90;2.95;;;;;;;;;;4928885;28;20050;-71
2023/05/12 05:01:25;;;;;;;5.22;2.75;;;;;;;;;;4929465;28;20149;-67
2023/05/12 05:03:50;;;;;;;4.63;3.10;;;;;;;;;;4932572;28;20042;-72
2023/05/12 05:06:16;;;;;;;5.45;3.30;;;;;;;;;;4912501;28;20850;-72
2023/05/12 05:08:41;;;;;;;5.35;3.55;;;;;;;;;;4931246;28;20047;-72
2023/05/12 05:11:07;;;;;;;4.45;3.30;;;;;;;;;;4931855;28;20117;-72
2023/05/12 05:13:32;;;;;;;4.82;3.15;;;;;;;;;;4934977;28;20043;-73
2023/05/12 05:15:58;;;;;;;4.95;3.58;;;;;;;;;;4930507;28;20051;-73
2023/05/12 05:18:23;;;;;;;4.05;3.20;;;;;;;;;;4928505;28;20039;-71
2023/05/12 05:20:49;;;;;;;5.20;3.13;;;;;;;;;;4914903;28;20049;-71
2023/05/12 05:23:14;;;;;;;5.85;3.42;;;;;;;;;;4934540;28;20035;-70
2023/05/12 05:25:39;;;;;;;4.18;2.97;;;;;;;;;;4936106;28;20393;-70
2023/05/12 05:28:05;;;;;;;5.63;3.70;;;;;;;;;;4933052;28;20028;-70
2023/05/12 05:30:30;;;;;;;4.30;3.65;;;;;;;;;;4925287;28;20626;-69
2023/05/12 05:32:56;;;;;;;4.15;3.05;;;;;;;;;;4936268;28;20043;-66
2023/05/12 05:35:21;;;;;;;6.20;4.18;;;;;;;;;;4919658;28;20131;-67
2023/05/12 05:37:46;;;;;;;6.28;3.28;;;;;;;;;;4936209;28;20106;-66
2023/05/12 05:40:12;;;;;;;4.25;3.60;;;;;;;;;;4929055;28;20783;-66
2023/05/12 05:42:37;;;;;;;5.05;3.58;;;;;;;;;;4941101;28;20034;-66
2023/05/12 05:45:03;;;;;;;4.65;3.42;;;;;;;;;;4937741;28;20062;-66
2023/05/12 05:47:30;;;;;;;6.22;3.67;;;;;;;;;;4933643;28;20049;-66
2023/05/12 05:49:56;;;;;;;5.90;3.78;;;;;;;;;;4928456;28;20117;-66
2023/05/12 05:52:23;;;;;;;4.63;2.90;;;;;;;;;;4935687;28;20681;-66
2023/05/12 05:54:48;;;;;;;6.55;4.70;;;;;;;;;;4940603;28;20061;-66
2023/05/12 05:57:14;;;;;;;4.82;3.58;;;;;;;;;;4939543;28;20512;-66
2023/05/12 05:59:39;;;;;;;4.15;3.25;;;;;;;;;;4940984;28;20031;-66
2023/05/12 06:02:05;;;;;;;4.25;3.13;;;;;;;;;;4923649;28;20039;-67
2023/05/12 06:04:30;;;;;;;6.35;3.65;;;;;;;;;;4919624;28;20217;-66
2023/05/12 06:06:56;;;;;;;4.43;3.10;;;;;;;;;;4938565;28;20121;-67
2023/05/12 06:09:21;;;;;;;3.53;3.00;;;;;;;;;;4937281;28;20711;-66
2023/05/12 06:11:47;;;;;;;4.57;3.03;;;;;;;;;;4937038;28;20043;-67
2023/05/12 06:14:12;;;;;;;3.90;2.90;;;;;;;;;;4932713;28;20114;-66
2023/05/12 06:16:38;;;;;;;4.93;3.08;;;;;;;;;;4921212;28;20043;-67
2023/05/12 06:19:03;;;;;;;4.85;3.17;;;;;;;;;;4936772;28;20047;-66
2023/05/12 06:21:29;;;;;;;4.32;2.95;;;;;;;;;;4940173;28;20130;-66
2023/05/12 06:23:55;;;;;;;4.22;3.20;;;;;;;;;;4935195;28;20522;-66
2023/05/12 06:26:21;;;;;;;5.78;3.67;;;;;;;;;;4942074;28;20047;-66
2023/05/12 06:28:46;;;;;;;7.55;3.90;;;;;;;;;;4941952;28;20031;-66
2023/05/12 06:31:12;;;;;;;4.57;3.08;;;;;;;;;;4919602;28;20038;-66
2023/05/12 06:33:37;;;;;;;6.55;3.53;;;;;;;;;;4939128;28;20039;-66
2023/05/12 06:36:03;;;;;;;4.13;3.20;;;;;;;;;;4930764;28;20122;-66
2023/05/12 06:38:28;;;;;;;4.60;3.85;;;;;;;;;;4941362;28;20039;-67
2023/05/12 06:40:53;;;;;;;5.97;3.65;;;;;;;;;;4940095;28;20043;-67
2023/05/12 06:43:19;;;;;;;8.85;5.00;;;;;;;;;;4934195;28;20777;-66
2023/05/12 06:45:44;;;;;;;5.18;4.00;;;;;;;;;;4915213;28;20043;-67
2023/05/12 06:48:10;;;;;;;4.70;3.83;;;;;;;;;;4933951;28;20087;-67
2023/05/12 06:50:36;;;;;;;6.75;4.03;;;;;;;;;;4939355;28;20261;-67
2023/05/12 06:53:01;;;;;;;6.25;4.07;;;;;;;;;;4939020;28;20039;-66
2023/05/12 06:55:27;;;;;;;4.97;3.30;;;;;;;;;;4931661;28;20491;-66
2023/05/12 06:57:54;;;;;;;5.10;4.00;;;;;;;;;;4934507;28;20508;-66
2023/05/12 07:00:23;;;;;;;6.47;4.28;;;;;;;;;;4918530;28;20513;-67
2023/05/12 07:02:48;;;;;;;4.80;3.65;;;;;;;;;;4941881;28;20439;-66
2023/05/12 07:05:14;;;;;;;5.47;4.07;;;;;;;;;;4936879;28;20125;-66
2023/05/12 07:07:40;;;;;;;7.03;3.92;;;;;;;;;;4932687;28;20070;-67
2023/05/12 07:10:06;;;;;;;5.15;3.78;;;;;;;;;;4937699;28;20683;-68
2023/05/12 07:12:32;;;;;;;5.97;3.75;;;;;;;;;;4931036;28;20081;-67
2023/05/12 07:14:57;;;;;;;6.32;4.00;;;;;;;;;;4932744;28;20044;-67
2023/05/12 07:17:22;;;;;;;6.53;4.57;;;;;;;;;;4930503;28;20047;-67
2023/05/12 07:19:48;;;;;;;5.40;3.75;;;;;;;;;;4935343;28;20937;-67
2023/05/12 07:22:13;;;;;;;4.57;3.42;;;;;;;;;;4939652;28;20035;-67
2023/05/12 07:24:40;;;;;;;4.80;3.63;;;;;;;;;;4940184;28;20443;-67
2023/05/12 07:27:07;;;;;;;6.63;3.92;;;;;;;;;;4918708;28;20035;-67
2023/05/12 07:29:32;;;;;;;5.53;3.97;;;;;;;;;;4939818;28;20043;-66
2023/05/12 07:31:58;;;;;;;4.68;3.33;;;;;;;;;;4934093;28;20062;-66
2023/05/12 07:34:23;;;;;;;5.97;4.00;;;;;;;;;;4940628;28;20548;-67
2023/05/12 07:36:49;;;;;;;5.78;3.80;;;;;;;;;;4939469;28;20137;-67
2023/05/12 07:39:18;;;;;;;5.47;4.45;;;;;;;;;;4932350;28;20074;-67
2023/05/12 07:41:43;;;;;;;6.10;4.10;;;;;;;;;;4911141;28;20456;-66
2023/05/12 07:44:09;;;;;;;5.35;4.13;;;;;;;;;;4938255;28;20071;-67
2023/05/12 07:46:35;;;;;;;5.85;4.65;;;;;;;;;;4934317;28;20039;-66
2023/05/12 07:49:01;;;;;;;6.90;4.78;;;;;;;;;;4935782;28;20039;-66
2023/05/12 07:51:26;;;;;;;6.30;4.45;;;;;;;;;;4939651;28;20161;-67
2023/05/12 07:53:54;;;;;;;5.45;4.80;;;;;;;;;;4933200;28;20042;-67
2023/05/12 07:56:20;;;;;;;5.28;4.03;;;;;;;;;;4929525;28;20047;-67
2023/05/12 07:58:46;;;;;;;7.10;5.03;;;;;;;;;;4936748;28;20084;-67
2023/05/12 08:01:11;;;;;;;8.15;4.80;;;;;;;;;;4937183;28;20573;-67
2023/05/12 08:03:37;;;;;;;6.80;5.60;;;;;;;;;;4936673;28;20358;-67
2023/05/12 08:06:04;;;;;;;7.22;5.75;;;;;;;;;;4939537;28;20043;-68
2023/05/12 08:08:30;;;;;;;6.22;5.53;;;;;;;;;;4929410;28;20039;-67
2023/05/12 08:10:56;;;;;;;7.53;5.60;;;;;;;;;;4934707;28;20093;-67
2023/05/12 08:13:21;;;;;;;8.00;6.45;;;;;;;;;;4937055;28;20035;-67
2023/05/12 08:15:48;;;;;;;6.50;5.00;;;;;;;;;;4932147;28;20050;-67
2023/05/12 08:18:14;;;;;;;7.30;4.43;;;;;;;;;;4936002;28;20031;-67
2023/05/12 08:20:40;;;;;;;7.07;5.07;;;;;;;;;;4940090;28;20042;-67
2023/05/12 08:23:06;;;;;;;6.85;5.25;;;;;;;;;;4917974;28;20043;-69
2023/05/12 08:25:33;;;;;;;7.60;5.03;;;;;;;;;;4938469;28;20050;-67
2023/05/12 08:27:59;;;;;;;9.10;5.57;;;;;;;;;;4937844;28;20503;-68
2023/05/12 08:30:25;;;;;;;7.47;5.68;;;;;;;;;;4931958;28;20039;-68
2023/05/12 08:32:50;;;;;;;7.30;5.05;;;;;;;;;;4935196;28;20796;-67
2023/05/12 08:35:15;;;;;;;5.45;4.30;;;;;;;;;;4932632;28;20051;-68
2023/05/12 08:37:41;;;;;;;6.55;4.93;;;;;;;;;;4915398;28;20043;-68
2023/05/12 08:40:19;;;;;;;6.15;5.30;;;;;;;;;;4935902;28;20539;-68
2023/05/12 08:43:03;;;;;;;6.20;5.13;;;;;;;;;;4941661;28;20145;-68
2023/05/12 08:45:29;;;;;;;6.13;5.18;;;;;;;;;;4935555;28;20067;-67
2023/05/12 08:47:56;;;;;;;6.70;5.13;;;;;;;;;;4917446;28;20073;-68
2023/05/12 08:50:23;;;;;;;6.93;5.00;;;;;;;;;;4936310;28;20035;-68
2023/05/12 08:52:49;;;;;;;8.20;4.53;;;;;;;;;;4934722;28;20042;-69
2023/05/12 08:55:15;;;;;;;7.10;5.20;;;;;;;;;;4940138;28;20065;-68
2023/05/12 08:57:44;;;;;;;8.45;5.18;;;;;;;;;;4937053;28;20042;-69
2023/05/12 09:00:11;;;;;;;6.18;4.88;;;;;;;;;;4930655;28;20062;-68
2023/05/12 09:02:41;;;;;;;6.00;5.20;;;;;;;;;;4895576;28;20090;-68
2023/05/12 09:05:08;;;;;;;5.18;4.45;;;;;;;;;;4932473;28;20057;-68
2023/05/12 09:07:35;;;;;;;6.03;4.60;;;;;;;;;;4932286;28;20035;-69
2023/05/12 09:10:03;;;;;;;5.88;5.07;;;;;;;;;;4930446;28;20090;-69
2023/05/12 09:12:33;;;;;;;6.05;4.82;;;;;;;;;;4936834;28;20046;-69
2023/05/12 09:15:09;;;;;;;6.00;4.60;;;;;;;;;;4917504;28;20098;-70
2023/05/12 09:17:35;;;;;;;7.03;4.53;;;;;;;;;;4933009;28;20046;-67
2023/05/12 09:20:02;;;;;;;8.75;4.95;;;;;;;;;;4937329;28;20031;-69
2023/05/12 09:22:33;;;;;;;5.65;3.85;;;;;;;;;;4937603;28;20078;-69
2023/05/12 09:24:59;;;;;;;4.07;3.20;;;;;;;;;;4932223;28;20050;-68
2023/05/12 09:27:27;;;;;;;4.38;3.30;;;;;;;;;;4916507;28;20047;-71
2023/05/12 09:29:52;;;;;;;6.22;5.00;;;;;;;;;;4933365;28;20134;-71
2023/05/12 09:32:30;;;;;;;4.53;3.22;;;;;;;;;;4934885;28;20470;-71
2023/05/12 09:34:55;;;;;;;6.22;4.55;;;;;;;;;;4937169;28;20672;-68
2023/05/12 09:37:30;;;;;;;5.47;4.10;;;;;;;;;;4936834;28;20043;-72
2023/05/12 09:40:03;;;;;;;7.95;4.32;;;;;;;;;;4908658;28;20236;-71
2023/05/12 09:42:29;;;;;;;8.02;4.28;;;;;;;;;;4932531;28;20044;-70
2023/05/12 09:45:10;;;;;;;5.72;4.25;;;;;;;;;;4936111;28;20130;-71
2023/05/12 09:47:36;;;;;;;5.27;3.77;;;;;;;;;;4930164;28;20400;-71
2023/05/12 09:50:03;;;;;;;5.22;3.50;;;;;;;;;;4919554;28;20062;-71
2023/05/12 09:52:31;;;;;;;6.18;3.55;;;;;;;;;;4936658;28;20039;-71
2023/05/12 09:55:07;;;;;;;4.30;2.55;;;;;;;;;;4932785;28;20046;-71
2023/05/12 09:57:38;;;;;;;4.47;3.28;;;;;;;;;;4930656;28;20031;-72
2023/05/12 10:00:07;;;;;;;3.55;2.58;;;;;;;;;;4933407;28;20544;-72
2023/05/12 10:02:33;;;;;;;4.18;3.35;;;;;;;;;;4894154;28;20055;-71
2023/05/12 10:05:04;;;;;;;4.05;2.67;;;;;;;;;;4909528;28;20050;-71
2023/05/12 10:07:33;;;;;;;5.57;3.45;;;;;;;;;;4932101;28;20035;-72
2023/05/12 10:10:03;;;;;;;4.13;2.75;;;;;;;;;;4937378;28;20046;-71
2023/05/12 10:12:28;;;;;;;4.82;3.63;;;;;;;;;;4938211;28;20410;-72
2023/05/12 10:14:54;;;;;;;5.38;3.60;;;;;;;;;;4935146;28;20130;-71
2023/05/12 10:17:19;;;;;;;5.22;3.65;;;;;;;;;;4919162;28;20078;-69
2023/05/12 10:19:47;;;;;;;5.75;3.63;;;;;;;;;;4940502;28;20507;-72
2023/05/12 10:22:14;;;;;;;5.13;2.70;;;;;;;;;;4941137;28;20043;-71
2023/05/12 10:24:40;;;;;;;5.65;3.95;;;;;;;;;;4935740;28;20106;-70
2023/05/12 10:27:07;;;;;;;4.70;3.30;;;;;;;;;;4939995;28;20070;-72
2023/05/12 10:29:33;;;;;;;5.85;3.05;;;;;;;;;;4909015;28;20591;-69
2023/05/12 10:32:01;;;;;;;4.32;3.35;;;;;;;;;;4926260;28;20047;-70
2023/05/12 10:34:34;;;;;;;5.63;4.00;;;;;;;;;;4927525;28;20186;-72
2023/05/12 10:37:07;;;;;;;4.68;3.60;;;;;;;;;;4936224;28;20114;-73
2023/05/12 10:39:32;;;;;;;4.65;3.60;;;;;;;;;;4911177;28;20082;-72
2023/05/12 10:42:06;;;;;;;5.30;3.60;;;;;;;;;;4915722;28;20043;-72
2023/05/12 10:44:31;;;;;;;4.15;3.55;;;;;;;;;;4923389;28;20050;-72
2023/05/12 10:47:00;;;;;;;4.78;3.42;;;;;;;;;;4936891;28;20039;-72
2023/05/12 10:49:33;;;;;;;4.10;3.40;;;;;;;;;;4934715;28;20061;-72
2023/05/12 10:52:00;;;;;;;4.10;3.47;;;;;;;;;;4937388;28;20042;-72
2023/05/12 10:54:25;;;;;;;4.35;3.20;;;;;;;;;;4922641;28;20039;-73
2023/05/12 10:56:52;;;;;;;5.18;3.28;;;;;;;;;;4936295;28;20049;-70
2023/05/12 10:59:22;;;;;;;4.80;3.22;;;;;;;;;;4926117;28;20071;-72
2023/05/12 11:02:11;;;;;;;6.05;2.60;;;;;;;;;;4923011;28;20116;-72
2023/05/12 11:04:54;;;;;;;6.05;3.05;;;;;;;;;;4936715;28;20046;-72
2023/05/12 11:07:23;;;;;;;3.58;2.85;;;;;;;;;;4916691;28;20555;-71
2023/05/12 11:09:49;;;;;;;5.05;2.40;;;;;;;;;;4921657;28;20045;-72
2023/05/12 11:12:15;;;;;;;3.65;2.65;;;;;;;;;;4926072;28;20040;-72
2023/05/12 11:14:42;;;;;;;6.05;3.10;;;;;;;;;;4936248;28;20063;-71
2023/05/12 11:17:08;;;;;;;5.90;3.50;;;;;;;;;;4933183;28;20474;-72
2023/05/12 11:19:34;;;;;;;4.00;2.83;;;;;;;;;;4919227;28;20122;-72
2023/05/12 11:22:10;;;;;;;4.18;3.03;;;;;;;;;;4940017;28;20065;-72
2023/05/12 11:24:38;;;;;;;3.10;2.40;;;;;;;;;;4942776;28;20024;-72
2023/05/12 11:27:04;;;;;;;3.60;1.98;;;;;;;;;;4920674;29;20051;-71
2023/05/12 11:29:30;;;;;;;3.65;2.60;;;;;;;;;;4925033;29;20091;-71
2023/05/12 11:31:56;;;;;;;3.97;2.65;;;;;;;;;;4922442;29;20032;-72
2023/05/12 11:34:23;;;;;;;4.90;3.33;;;;;;;;;;4927538;29;20038;-71
2023/05/12 11:36:51;;;;;;;3.97;3.05;;;;;;;;;;4946171;28;20035;-72
2023/05/12 11:39:19;;;;;;;6.30;3.30;;;;;;;;;;4924164;29;20036;-72
2023/05/12 11:41:45;;;;;;;3.90;2.97;;;;;;;;;;4920735;29;20513;-72
2023/05/12 11:44:20;;;;;;;4.82;2.70;;;;;;;;;;4922304;29;20070;-72
2023/05/12 11:47:00;;;;;;;4.35;2.60;;;;;;;;;;4925356;29;20118;-72
2023/05/12 11:49:27;;;;;;;3.88;2.97;;;;;;;;;;4925187;28;20566;-72
2023/05/12 11:51:54;;;;;;;2.78;2.30;;;;;;;;;;4923883;29;20113;-72
2023/05/12 11:54:21;;;;;;;5.75;3.33;;;;;;;;;;4924255;29;20063;-72
2023/05/12 11:56:53;;;;;;;3.35;2.70;;;;;;;;;;4951529;28;20110;-72
2023/05/12 11:59:32;;;;;;;3.72;2.65;;;;;;;;;;4926895;29;20046;-72
2023/05/12 12:02:02;;;;;;;5.53;2.80;;;;;;;;;;4922110;29;20046;-72
2023/05/12 12:04:33;;;;;;;4.35;3.00;;;;;;;;;;4923938;29;20492;-72
2023/05/12 12:06:58;;;;;;;5.13;2.40;;;;;;;;;;4918045;29;20130;-73
2023/05/12 12:09:34;;;;;;;3.58;2.40;;;;;;;;;;4920588;28;20475;-72
2023/05/12 12:12:01;;;;;;;4.05;2.55;;;;;;;;;;4923984;29;20103;-72
2023/05/12 12:14:26;;;;;;;4.13;2.53;;;;;;;;;;4924182;29;20039;-72
2023/05/12 12:16:52;;;;;;;4.55;2.45;;;;;;;;;;4919751;29;20036;-72
2023/05/12 12:19:19;;;;;;;3.55;2.67;;;;;;;;;;4922826;29;20028;-71
2023/05/12 12:21:44;;;;;;;3.58;2.30;;;;;;;;;;4921745;29;20028;-71
2023/05/12 12:24:09;;;;;;;3.33;2.08;;;;;;;;;;4925379;29;20405;-71
2023/05/12 12:26:35;;;;;;;2.83;2.22;;;;;;;;;;4924245;29;20040;-71
2023/05/12 12:29:00;;;;;;;5.68;3.08;;;;;;;;;;4925207;29;20017;-72
2023/05/12 12:31:26;;;;;;;4.25;2.70;;;;;;;;;;4924832;29;20424;-71
2023/05/12 12:33:51;;;;;;;3.45;2.50;;;;;;;;;;4925204;29;20063;-73
2023/05/12 12:36:16;;;;;;;5.18;2.53;;;;;;;;;;4925953;29;20456;-73
2023/05/12 12:38:42;;;;;;;3.20;2.60;;;;;;;;;;4926383;28;20098;-75
2023/05/12 12:41:07;;;;;;;5.43;2.83;;;;;;;;;;4919032;29;20028;-74
2023/05/12 12:43:33;;;;;;;5.32;2.50;;;;;;;;;;4925964;28;20095;-74
2023/05/12 12:45:58;;;;;;;4.05;2.65;;;;;;;;;;4947532;28;20035;-70
2023/05/12 12:48:25;;;;;;;3.33;2.58;;;;;;;;;;4921706;29;20027;-70
2023/05/12 12:50:51;;;;;;;4.05;2.50;;;;;;;;;;4923969;29;20054;-70
2023/05/12 12:53:16;;;;;;;3.55;2.72;;;;;;;;;;4919434;28;20175;-70
2023/05/12 12:55:41;;;;;;;4.90;2.97;;;;;;;;;;4921994;29;20031;-69
2023/05/12 12:58:07;;;;;;;6.05;3.00;;;;;;;;;;4919287;29;20032;-69
2023/05/12 13:00:33;;;;;;;4.57;2.55;;;;;;;;;;4920999;29;20024;-69
2023/05/12 13:02:59;;;;;;;5.25;2.50;;;;;;;;;;4921017;29;20031;-69
2023/05/12 13:05:27;;;;;;;4.22;2.50;;;;;;;;;;4922764;29;20031;-69
2023/05/12 13:07:52;;;;;;;3.22;2.35;;;;;;;;;;4923606;29;20035;-69
2023/05/12 13:10:17;;;;;;;4.32;2.50;;;;;;;;;;4924889;29;20053;-70
2023/05/12 13:12:43;;;;;;;7.82;2.97;;;;;;;;;;4923880;29;20040;-69
2023/05/12 13:15:10;;;;;;;10.38;3.20;;;;;;;;;;4922500;29;20032;-69
2023/05/12 13:17:35;;;;;;;4.90;3.10;;;;;;;;;;4925802;29;20106;-69
2023/05/12 13:20:02;;;;;;;5.70;2.60;;;;;;;;;;4920553;29;20123;-71
2023/05/12 13:22:28;;;;;;;3.08;2.25;;;;;;;;;;4919422;29;20480;-70
2023/05/12 13:24:55;;;;;;;3.00;2.40;;;;;;;;;;4919604;29;20079;-70
2023/05/12 13:27:20;;;;;;;4.10;2.58;;;;;;;;;;4920287;29;20409;-70
2023/05/12 13:29:46;;;;;;;4.22;2.38;;;;;;;;;;4924968;29;20093;-70
2023/05/12 13:32:13;;;;;;;2.78;2.13;;;;;;;;;;4922842;29;20031;-70
2023/05/12 13:34:38;;;;;;;3.40;2.60;;;;;;;;;;4925231;29;20043;-69
2023/05/12 13:37:04;;;;;;;5.50;2.42;;;;;;;;;;4924830;29;20022;-69
2023/05/12 13:39:29;;;;;;;2.22;1.92;;;;;;;;;;4927497;29;20322;-69
2023/05/12 13:41:55;;;;;;;4.28;2.55;;;;;;;;;;4928764;29;20016;-70
2023/05/12 13:44:20;;;;;;;2.97;2.45;;;;;;;;;;4929650;28;20393;-70
2023/05/12 13:46:46;;;;;;;4.45;3.08;;;;;;;;;;4926728;29;20060;-70
2023/05/12 13:49:11;;;;;;;3.70;2.63;;;;;;;;;;4927200;29;20041;-69
2023/05/12 13:51:37;;;;;;;3.25;2.40;;;;;;;;;;4921290;29;20031;-70
2023/05/12 13:54:02;;;;;;;3.63;2.60;;;;;;;;;;4932689;29;20043;-69
2023/05/12 13:56:28;;;;;;;3.40;2.33;;;;;;;;;;4932175;29;20110;-70
2023/05/12 13:58:53;;;;;;;4.28;2.83;;;;;;;;;;4939934;28;20042;-70
2023/05/12 14:01:19;;;;;;;3.63;2.33;;;;;;;;;;4941646;28;20131;-70
2023/05/12 14:03:44;;;;;;;4.30;2.50;;;;;;;;;;4952658;28;20489;-69
2023/05/12 14:06:11;;;;;;;2.65;2.10;;;;;;;;;;4931759;29;20023;-70
2023/05/12 14:08:37;;;;;;;3.60;2.50;;;;;;;;;;4932034;29;20504;-70
2023/05/12 14:11:02;;;;;;;4.47;2.67;;;;;;;;;;4933332;29;20134;-70
2023/05/12 14:13:28;;;;;;;3.83;2.50;;;;;;;;;;4928555;29;20388;-70
2023/05/12 14:15:53;;;;;;;3.97;2.65;;;;;;;;;;4925305;29;20024;-71
2023/05/12 14:18:19;;;;;;;4.93;2.90;;;;;;;;;;4928051;29;20040;-70
2023/05/12 14:20:45;;;;;;;3.53;2.45;;;;;;;;;;4931898;29;20036;-70
2023/05/12 14:23:11;;;;;;;4.65;2.53;;;;;;;;;;4935134;28;20088;-71
2023/05/12 14:25:36;;;;;;;4.57;2.50;;;;;;;;;;4932879;29;20501;-70
2023/05/12 14:28:02;;;;;;;3.22;2.08;;;;;;;;;;4932236;29;20067;-70
2023/05/12 14:30:28;;;;;;;4.25;2.45;;;;;;;;;;4939653;29;20031;-70
2023/05/12 14:32:54;;;;;;;4.72;2.42;;;;;;;;;;4931981;29;20036;-71
2023/05/12 14:35:19;;;;;;;3.05;2.17;;;;;;;;;;4934297;29;20055;-71
2023/05/12 14:37:45;;;;;;;3.03;2.58;;;;;;;;;;4931937;29;20035;-71
2023/05/12 14:40:11;;;;;;;3.70;2.30;;;;;;;;;;4926426;29;20024;-71